Latest Weather Observations for Nowra

IDN60901

Issued at 4:55 am EDT Saturday 25 October 2014 (issued every 10 minutes, with the page automatically refreshed every 10 minutes)

About weather observations | Map of Canberra area stations | Latest observations for Canberra area | Other Formats
Station Details ID: 068072 Name: NOWRA RAN AIR STATION AWS Lat: -34.95 Lon: 150.54 Height: 109.0 m
Data from the previous 72 hours. | See also: Recent months at Nowra
Date/Time
EDT
Tmp

°C
App
Tmp
°C
Dew
Point
°C
Rel
Hum
%
Delta-T

°C
Wind Press
QNH
hPa
Press
MSL
hPa
Rain
since
9 am
mm
Dir
 
Spd
km/h
Gust
km/h
Spd
kts
Gust
kts
25/04:41am 15.7 16.3 15.7 100 0.0 S 7 11 4 6 1012.5 - 0.2
25/04:30am 16.5 17.4 16.5 100 0.0 W 7 11 4 6 1012.4 - 0.2
25/04:09am 15.2 15.6 15.2 100 0.0 S 7 9 4 5 1012.0 - 0.2
25/04:00am 14.8 15.2 14.8 100 0.0 S 6 9 3 5 1012.0 - 0.2
25/03:51am 14.5 15.6 14.5 100 0.0 SSW 2 6 1 3 1011.8 - 0.2
25/03:42am 14.8 15.0 14.8 100 0.0 SSW 7 7 4 4 1011.8 - 0.2
25/03:30am 14.8 15.1 14.6 99 0.1 SSW 6 9 3 5 1011.7 - 0.2
25/03:26am 15.2 16.4 15.0 99 0.1 ESE 2 7 1 4 1011.6 - 0.2
25/03:00am 17.1 19.2 17.1 100 0.0 E 2 7 1 4 1011.6 1011.5 0.2
25/02:44am 17.6 18.5 17.6 100 0.0 N 9 15 5 8 1011.5 - 0.2
25/02:30am 16.9 17.9 16.9 100 0.0 N 7 11 4 6 1011.5 - 0.2
25/02:29am 16.8 18.0 16.8 100 0.0 N 6 11 3 6 1011.5 - 0.2
25/02:00am 17.2 19.6 17.0 99 0.1 CALM 0 0 0 0 1011.5 - 0.2
25/01:30am 17.8 20.4 17.5 98 0.2 CALM 0 0 0 0 1011.7 - 0.2
25/01:00am 18.4 21.3 18.2 99 0.1 CALM 0 0 0 0 1011.9 - 0.2
25/12:30am 19.6 22.2 18.3 92 0.8 W 2 7 1 4 1011.9 - 0.2
25/12:00am 19.9 21.3 18.6 92 0.8 W 9 15 5 8 1012.0 1011.9 0.2
 
Date/Time
EDT
Tmp

°C
App
Tmp
°C
Dew
Point
°C
Rel
Hum
%
Delta-T

°C
Wind Press
QNH
hPa
Press
MSL
hPa
Rain
since
9 am
mm
Dir
 
Spd
km/h
Gust
km/h
Spd
kts
Gust
kts
24/11:30pm 20.2 22.2 19.2 94 0.6 N 7 11 4 6 1011.8 - 0.2
24/11:00pm 20.2 21.2 19.4 95 0.5 NW 13 19 7 10 1012.0 - 0.2
24/10:30pm 20.2 20.6 19.9 98 0.2 WNW 17 22 9 12 1012.1 - 0.2
24/10:00pm 20.3 20.7 19.1 93 0.8 N 15 20 8 11 1013.0 - 0.0
24/09:30pm 20.9 21.6 18.8 88 1.3 N 13 20 7 11 1013.1 - 0.0
24/09:00pm 20.6 20.4 18.4 87 1.4 NW 17 20 9 11 1013.6 1013.4 0.0
24/08:30pm 20.1 21.0 18.4 90 1.1 S 11 15 6 8 1012.6 - 0.0
24/08:00pm 19.7 21.4 18.4 92 0.8 SW 7 9 4 5 1012.3 - 0.0
24/07:30pm 19.8 20.8 17.8 88 1.2 S 9 11 5 6 1011.9 - 0.0
24/07:00pm 20.5 21.5 17.7 84 1.7 SE 9 11 5 6 1011.6 - 0.0
24/06:30pm 21.1 21.7 17.7 81 2.1 ESE 11 15 6 8 1011.5 - 0.0
24/06:00pm 21.6 21.8 17.6 78 2.5 E 13 19 7 10 1011.5 1011.4 0.0
24/05:30pm 23.0 23.1 17.5 71 3.4 ESE 13 19 7 10 1011.5 - 0.0
24/05:00pm 23.7 23.2 17.7 69 3.8 E 17 20 9 11 1011.6 - 0.0
24/04:30pm 23.5 22.6 17.7 70 3.6 E 19 24 10 13 1011.7 - 0.0
24/04:00pm 24.3 23.3 18.0 68 4.0 E 20 28 11 15 1012.1 - 0.0
24/03:30pm 24.4 22.5 17.6 66 4.3 E 24 30 13 16 1012.2 - 0.0
24/03:00pm 24.7 24.0 18.2 67 4.1 E 19 26 10 14 1012.8 1012.7 0.0
24/02:30pm 25.1 24.5 18.8 68 4.0 ENE 20 26 11 14 1013.5 - 0.0
24/02:00pm 24.6 23.7 18.3 68 4.0 E 20 24 11 13 1014.0 - 0.0
24/01:30pm 24.6 23.9 18.3 68 4.0 E 19 26 10 14 1014.6 - 0.0
24/01:00pm 24.1 22.7 17.1 65 4.3 E 20 28 11 15 1015.2 - 0.0
24/12:30pm 24.3 23.4 16.8 63 4.6 ENE 17 20 9 11 1015.8 - 0.0
24/12:00pm 24.1 24.1 17.1 65 4.3 ENE 13 26 7 14 1016.6 1016.4 0.0
24/11:30am 23.6 23.6 17.1 67 4.0 E 13 17 7 9 1017.4 - 0.0
24/11:00am 22.9 22.8 17.8 73 3.2 E 15 20 8 11 1018.1 - 0.0
24/10:30am 22.3 22.8 16.6 70 3.5 ENE 9 15 5 8 1018.5 - 0.0
24/10:00am 20.5 21.4 17.5 83 1.8 SE 9 13 5 7 1018.6 - 0.0
24/09:30am 19.6 20.5 17.6 88 1.2 SE 9 13 5 7 1018.5 - 0.0
24/09:00am 18.9 19.4 16.5 86 1.4 S 9 11 5 6 1019.2 1019.1 3.2
24/08:30am 18.6 19.1 16.6 88 1.2 S 9 11 5 6 1019.2 - 3.2
24/08:00am 18.4 17.7 15.3 82 1.8 S 13 15 7 8 1018.9 - 3.2
24/07:30am 17.5 17.6 15.5 88 1.2 SSW 9 11 5 6 1018.8 - 3.2
24/07:00am 17.0 17.9 16.0 94 0.6 S 6 9 3 5 1018.5 - 3.2
24/06:30am 17.6 17.5 15.0 85 1.5 NW 9 13 5 7 1018.0 - 3.2
24/06:00am 18.0 16.7 14.9 82 1.8 NNW 15 28 8 15 1017.6 1017.5 3.2
24/05:30am 17.4 15.3 15.2 87 1.3 NNW 20 26 11 14 1017.0 - 3.2
24/05:00am 17.3 16.5 15.1 87 1.3 WNW 13 22 7 12 1018.6 - 3.2
24/04:30am 17.8 14.8 14.9 83 1.7 NW 24 33 13 18 1018.9 - 2.4
24/04:00am 17.8 14.9 15.1 84 1.6 W 24 28 13 15 1019.5 - 1.4
24/03:30am 17.5 19.3 16.5 94 0.6 SE 2 7 1 4 1019.1 - 1.4
24/03:00am 17.7 16.7 16.7 94 0.6 S 17 20 9 11 1020.4 1020.3 1.0
24/02:30am 17.6 18.1 17.4 99 0.1 W 11 20 6 11 1019.2 - 0.6
24/02:00am 17.6 17.3 17.4 99 0.1 W 15 20 8 11 1018.5 - 0.6
24/01:30am 17.7 18.2 17.5 99 0.1 WNW 11 13 6 7 1018.7 - 0.6
24/01:15am 17.9 18.9 17.7 99 0.1 NNW 9 11 5 6 1018.7 - 0.6
24/01:00am 18.0 18.3 18.0 100 0.0 NNW 13 15 7 8 1018.9 - 0.6
24/12:45am 17.9 18.2 17.9 100 0.0 WSW 13 20 7 11 1019.6 - 0.6
24/12:39am 18.0 18.3 18.0 100 0.0 WSW 13 19 7 10 1019.7 - 0.6
24/12:30am 17.8 14.3 17.8 100 0.0 NNE 33 44 18 24 1017.7 - 0.4
24/12:26am 17.9 14.6 17.9 100 0.0 NNE 32 43 17 23 1017.9 - 0.4
24/12:24am 17.9 15.3 17.9 100 0.0 NNE 28 39 15 21 1018.8 - 0.4
24/12:12am 18.1 19.8 18.1 100 0.0 N 6 9 3 5 1021.0 - 0.4
24/12:00am 18.1 18.9 18.1 100 0.0 N 11 17 6 9 1020.8 1020.7 0.4
 
Date/Time
EDT
Tmp

°C
App
Tmp
°C
Dew
Point
°C
Rel
Hum
%
Delta-T

°C
Wind Press
QNH
hPa
Press
MSL
hPa
Rain
since
9 am
mm
Dir
 
Spd
km/h
Gust
km/h
Spd
kts
Gust
kts
23/11:42pm 18.3 18.7 18.1 99 0.1 SE 13 19 7 10 1021.4 - 0.2
23/11:30pm 18.3 19.1 18.1 99 0.1 S 11 15 6 8 1022.0 - 0.0
23/11:10pm 18.4 18.4 18.2 99 0.1 SW 15 20 8 11 1021.8 - 0.0
23/11:00pm 18.4 18.1 18.2 99 0.1 ENE 17 26 9 14 1021.3 - 0.0
23/10:00pm 18.6 19.1 17.4 93 0.7 S 11 13 6 7 1021.0 - 0.0
23/09:30pm 18.8 20.0 17.3 91 0.9 S 7 9 4 5 1020.5 - 0.0
23/09:00pm 18.8 19.9 17.1 90 1.0 SW 7 11 4 6 1020.4 1020.3 0.0
23/08:30pm 19.3 21.8 17.3 88 1.2 CALM 0 6 0 3 1020.0 - 0.0
23/08:00pm 19.4 20.6 17.4 88 1.2 SE 7 11 4 6 1019.8 - 0.0
23/07:30pm 19.7 20.4 17.1 85 1.6 SE 9 13 5 7 1019.3 - 0.0
23/07:00pm 20.1 19.8 16.5 80 2.2 SE 13 15 7 8 1018.6 - 0.0
23/06:30pm 21.2 20.5 15.5 70 3.4 SSE 13 17 7 9 1018.4 - 0.0
23/06:00pm 22.3 22.1 15.6 66 4.0 SE 11 15 6 8 1018.2 1018.1 0.0
23/05:30pm 22.5 20.4 14.6 61 4.7 ESE 19 24 10 13 1017.4 - 0.0
23/05:00pm 24.5 22.3 14.9 55 5.8 ESE 20 22 11 12 1017.3 - 0.0
23/04:30pm 25.4 23.5 14.2 50 6.7 E 17 20 9 11 1017.0 - 0.0
23/04:00pm 26.7 25.1 15.1 49 7.0 ESE 17 24 9 13 1016.6 - 0.0
23/03:30pm 26.8 24.9 15.2 49 7.1 ESE 19 24 10 13 1016.6 - 0.0
23/03:00pm 26.8 25.0 15.5 50 6.9 ESE 19 22 10 12 1016.6 1016.4 0.0
23/02:30pm 27.7 25.0 12.9 40 8.7 SE 19 24 10 13 1016.5 - 0.0
23/02:00pm 27.8 26.0 13.3 40 8.6 ESE 15 20 8 11 1016.8 - 0.0
23/01:30pm 27.6 25.2 12.8 40 8.7 SE 17 22 9 12 1017.0 - 0.0
23/01:00pm 27.5 25.5 13.8 43 8.2 ESE 17 20 9 11 1017.0 - 0.0
23/12:30pm 27.1 26.3 14.1 44 7.8 SE 11 20 6 11 1017.4 - 0.0
23/12:00pm 26.5 26.3 14.6 48 7.2 ESE 9 17 5 9 1017.5 1017.4 0.0
23/11:30am 26.0 25.7 14.5 49 6.9 SE 9 13 5 7 1017.7 - 0.0
23/11:00am 25.4 25.8 14.8 52 6.4 ESE 6 11 3 6 1017.9 - 0.0
23/10:30am 24.3 24.6 14.4 54 5.9 SSE 6 9 3 5 1017.9 - 0.0
23/10:00am 24.1 24.5 15.3 58 5.3 SE 7 11 4 6 1017.9 - 0.0
23/09:30am 23.0 23.5 15.1 61 4.7 SE 6 11 3 6 1017.7 - 0.0
23/09:00am 21.9 21.8 15.0 65 4.1 SE 9 13 5 7 1017.7 1017.6 0.0
23/08:30am 22.4 22.4 13.5 57 5.2 WSW 6 11 3 6 1017.6 - 0.0
23/08:00am 20.5 18.7 13.2 63 4.2 WNW 15 19 8 10 1017.4 - 0.0
23/07:30am 18.4 17.2 12.8 70 3.2 NW 11 15 6 8 1017.3 - 0.0
23/07:00am 16.9 15.2 12.6 76 2.4 NW 13 17 7 9 1017.1 - 0.0
23/06:30am 16.1 14.1 12.8 81 1.8 WNW 15 17 8 9 1017.1 - 0.0
23/06:00am 14.5 14.0 13.9 96 0.3 WNW 9 13 5 7 1016.7 1016.6 0.0
23/05:30am 12.4 11.6 11.8 96 0.3 NW 7 11 4 6 1016.5 - 0.0
23/05:00am 13.5 13.3 13.0 97 0.3 NW 6 7 3 4 1016.2 - 0.0
23/04:30am 13.4 13.1 13.2 99 0.1 NW 7 9 4 5 1016.2 - 0.0
23/04:00am 13.2 13.0 13.0 99 0.1 WSW 6 9 3 5 1016.5 - 0.0
23/03:30am 13.0 13.2 11.9 93 0.6 S 2 6 1 3 1016.6 - 0.0
23/03:00am 14.0 13.4 12.4 90 0.9 SSE 7 9 4 5 1016.9 1016.8 0.0
23/02:30am 14.8 14.3 13.7 93 0.6 WNW 9 11 5 6 1017.0 - 0.0
23/02:00am 13.3 14.3 13.1 99 0.1 CALM 0 0 0 0 1017.2 - 0.0
23/01:30am 13.7 14.6 12.8 94 0.5 CALM 0 0 0 0 1017.6 - 0.0
23/01:00am 14.1 15.2 13.6 97 0.3 CALM 0 0 0 0 1017.9 - 0.0
23/12:30am 13.5 14.4 12.9 96 0.3 CALM 0 0 0 0 1018.2 - 0.0
23/12:00am 13.9 14.9 13.1 95 0.4 CALM 0 7 0 4 1018.5 1018.4 0.0
 
Date/Time
EDT
Tmp

°C
App
Tmp
°C
Dew
Point
°C
Rel
Hum
%
Delta-T

°C
Wind Press
QNH
hPa
Press
MSL
hPa
Rain
since
9 am
mm
Dir
 
Spd
km/h
Gust
km/h
Spd
kts
Gust
kts
22/11:30pm 14.0 15.0 13.2 95 0.4 CALM 0 0 0 0 1018.8 - 0.0
22/11:00pm 13.8 14.0 13.2 96 0.3 WSW 4 9 2 5 1019.0 - 0.0
22/10:30pm 13.9 14.6 12.3 90 0.9 CALM 0 0 0 0 1019.1 - 0.0
22/10:00pm 14.2 13.7 12.6 90 0.9 SW 7 9 4 5 1019.1 - 0.0
22/09:30pm 14.4 13.5 12.6 89 1.0 SW 9 11 5 6 1019.2 - 0.0
22/09:00pm 15.0 13.9 13.0 88 1.1 SW 11 11 6 6 1019.1 1019.0 0.0
22/08:30pm 15.2 14.4 12.9 86 1.3 SSW 9 11 5 6 1018.8 - 0.0
22/08:00pm 16.2 15.5 13.1 82 1.7 SSW 9 11 5 6 1018.7 - 0.0
22/07:30pm 17.3 16.5 13.0 76 2.4 SSE 9 11 5 6 1018.4 - 0.0
22/07:00pm 18.6 17.5 13.0 70 3.2 SE 11 13 6 7 1018.3 - 0.0
22/06:30pm 19.8 18.2 12.8 64 4.0 ESE 13 15 7 8 1018.0 - 0.0
22/06:00pm 21.2 19.2 12.6 58 4.9 E 15 17 8 9 1018.1 1018.0 0.0
22/05:30pm 22.1 20.2 12.9 56 5.3 E 15 20 8 11 1018.0 - 0.0
22/05:00pm 22.2 20.1 12.5 54 5.5 ENE 15 20 8 11 1018.2 - 0.0
22/04:30pm 22.7 20.3 12.6 53 5.8 NE 17 20 9 11 1018.4 - 0.0
22/04:00pm 22.6 19.2 12.5 53 5.8 ENE 22 28 12 15 1018.7 - 0.0
22/03:30pm 22.9 19.3 13.1 54 5.7 ENE 24 32 13 17 1019.1 - 0.0
22/03:00pm 22.5 18.6 12.2 52 5.8 ENE 24 30 13 16 1019.5 1019.4 0.0
22/02:30pm 23.2 19.0 12.5 51 6.1 ENE 26 32 14 17 1020.0 - 0.0
22/02:00pm 23.6 20.4 12.0 48 6.6 E 20 26 11 14 1020.7 - 0.0
22/01:30pm 22.8 20.7 9.9 44 7.1 NNE 11 22 6 12 1021.5 - 0.0
22/01:00pm 22.5 19.6 9.6 44 7.0 NNE 15 28 8 15 1022.2 - 0.0
22/12:30pm 21.4 18.9 8.3 43 6.9 NNE 11 20 6 11 1022.8 - 0.0
22/12:00pm 20.5 17.2 8.2 45 6.4 NE 15 22 8 12 1023.7 1023.5 0.0
22/11:30am 20.1 17.1 7.8 45 6.4 NNE 13 20 7 11 1024.4 - 0.0
22/11:00am 19.4 16.3 7.2 45 6.2 NNE 13 17 7 9 1024.8 - 0.0
22/10:30am 18.2 15.9 7.6 50 5.4 NNE 9 15 5 8 1025.4 - 0.0
22/10:00am 18.4 16.5 8.9 54 5.0 N 9 17 5 9 1025.7 - 0.0
22/09:30am 17.2 14.2 7.5 53 4.9 NNE 13 20 7 11 1025.9 - 0.0
22/09:00am 16.4 12.5 7.1 54 4.6 N 17 28 9 15 1026.1 1026.0 0.0
22/08:30am 16.0 12.1 7.2 56 4.4 NNE 17 24 9 13 1026.2 - 0.0
22/08:00am 15.4 12.4 7.9 61 3.8 N 13 19 7 10 1026.5 - 0.0
22/07:30am 14.5 12.1 7.1 61 3.6 N 9 15 5 8 1026.6 - 0.0
22/07:00am 13.2 11.2 7.2 67 2.9 N 7 11 4 6 1026.6 - 0.0
22/06:30am 12.3 9.5 6.8 69 2.6 N 11 13 6 7 1026.6 - 0.0
22/06:00am 13.1 8.8 7.1 67 2.9 N 19 26 10 14 1026.5 1026.4 0.0
22/05:30am 12.5 9.6 8.2 75 2.1 N 13 17 7 9 1026.6 - 0.0
22/05:00am 12.1 10.5 8.8 80 1.7 N 7 9 4 5 1026.6 - 0.0

Latest Capital City Observations: Canberra | Sydney | Melbourne | Brisbane | Adelaide | Perth | Hobart | Darwin

Other Formats:

Comma delimited format used in spreadsheet applications
http://www.bom.gov.au/fwo/IDN60903/IDN60903.94750.axf

JavaScript Object Notation format (JSON) in row-major order
http://www.bom.gov.au/fwo/IDN60903/IDN60903.94750.json